Time;durP1;ratioP1;P1;durP2;ratioP2;P2;SDS_P1;SDS_P2;PMS_P1;PMS_P2;Temp;Humidity;BMP_temperature;BMP_pressure;BME280_temperature;BME280_humidity;BME280_pressure;Samples;Min_cycle;Max_cycle;Signal;HPM_P1;HPM_P2
2022/04/15 00:01:00;;;;;;;;;;;10.60;84.90;;;;;;2101437;28;20373;-90
2022/04/15 00:02:19;;;;;;;;;;;10.60;84.90;;;;;;2101319;28;20429;-89
2022/04/15 00:03:39;;;;;;;;;;;10.60;84.90;;;;;;2095414;28;19913;-90
2022/04/15 00:04:58;;;;;;;;;;;10.60;84.90;;;;;;2080069;28;19921;-89
2022/04/15 00:06:17;;;;;;;;;;;10.60;85.00;;;;;;2087214;28;19917;-90
2022/04/15 00:07:36;;;;;;;;;;;10.60;85.00;;;;;;2094061;28;19975;-89
2022/04/15 00:08:56;;;;;;;;;;;10.50;85.00;;;;;;2083417;28;20399;-90
2022/04/15 00:10:16;;;;;;;;;;;10.50;85.20;;;;;;2089159;28;20995;-90
2022/04/15 00:11:37;;;;;;;;;;;10.50;85.20;;;;;;2096178;28;19916;-89
2022/04/15 00:12:57;;;;;;;;;;;10.50;85.20;;;;;;2091235;28;19999;-89
2022/04/15 00:14:16;;;;;;;;;;;10.40;85.30;;;;;;2083689;28;20282;-90
2022/04/15 00:15:36;;;;;;;;;;;10.40;85.30;;;;;;2091663;28;19920;-90
2022/04/15 00:16:57;;;;;;;;;;;10.40;85.40;;;;;;2093816;28;20462;-89
2022/04/15 00:18:16;;;;;;;;;;;10.40;85.40;;;;;;2096024;28;19917;-90
2022/04/15 00:19:36;;;;;;;;;;;10.40;85.40;;;;;;2100542;28;20248;-89
2022/04/15 00:20:55;;;;;;;;;;;10.40;85.50;;;;;;2105785;28;19948;-88
2022/04/15 00:22:14;;;;;;;;;;;10.30;85.50;;;;;;2101363;28;19983;-90
2022/04/15 00:23:34;;;;;;;;;;;10.40;85.50;;;;;;2100345;28;19920;-89
2022/04/15 00:24:53;;;;;;;;;;;10.30;85.50;;;;;;2105607;28;19916;-90
2022/04/15 00:26:13;;;;;;;;;;;10.30;85.50;;;;;;2103274;28;19976;-90
2022/04/15 00:27:32;;;;;;;;;;;10.30;85.50;;;;;;2101911;28;19925;-89
2022/04/15 00:28:52;;;;;;;;;;;10.30;85.50;;;;;;2103062;28;19920;-90
2022/04/15 00:30:11;;;;;;;;;;;10.30;85.40;;;;;;2094189;28;19960;-90
2022/04/15 00:31:30;;;;;;;;;;;10.30;85.50;;;;;;2096752;28;19912;-88
2022/04/15 00:32:50;;;;;;;;;;;10.30;85.60;;;;;;2107595;28;20014;-88
2022/04/15 00:34:09;;;;;;;;;;;10.20;85.60;;;;;;2110224;28;19916;-89
2022/04/15 00:35:28;;;;;;;;;;;10.20;85.70;;;;;;2102342;28;19955;-89
2022/04/15 00:36:47;;;;;;;;;;;10.20;85.70;;;;;;2083121;28;19917;-90
2022/04/15 00:38:07;;;;;;;;;;;10.20;85.70;;;;;;2084324;28;19917;-90
2022/04/15 00:39:26;;;;;;;;;;;10.20;85.70;;;;;;2085007;28;20375;-90
2022/04/15 00:40:46;;;;;;;;;;;10.20;85.70;;;;;;2086838;28;20287;-89
2022/04/15 00:42:07;;;;;;;;;;;10.20;85.70;;;;;;2088216;28;19996;-89
2022/04/15 00:43:27;;;;;;;;;;;10.20;85.80;;;;;;2089399;28;19932;-89
2022/04/15 00:44:48;;;;;;;;;;;10.20;85.80;;;;;;2087732;28;20298;-90
2022/04/15 00:46:08;;;;;;;;;;;10.20;85.70;;;;;;2096532;28;19916;-89
2022/04/15 00:47:27;;;;;;;;;;;10.20;85.70;;;;;;2103343;28;19920;-90
2022/04/15 00:48:46;;;;;;;;;;;10.20;85.70;;;;;;2098944;28;19962;-89
2022/04/15 00:50:06;;;;;;;;;;;10.20;85.70;;;;;;2092673;28;19916;-90
2022/04/15 00:51:25;;;;;;;;;;;10.20;85.70;;;;;;2090965;28;19913;-89
2022/04/15 00:52:46;;;;;;;;;;;10.10;85.70;;;;;;2092039;28;19917;-89
2022/04/15 00:54:05;;;;;;;;;;;10.10;85.80;;;;;;2088355;28;19913;-89
2022/04/15 00:55:25;;;;;;;;;;;10.10;85.80;;;;;;2100305;28;19916;-89
2022/04/15 00:56:45;;;;;;;;;;;10.10;85.90;;;;;;2098934;28;19920;-90
2022/04/15 00:58:04;;;;;;;;;;;10.10;86.00;;;;;;2098330;28;19995;-88
2022/04/15 00:59:25;;;;;;;;;;;10.00;86.00;;;;;;2089987;28;20375;-90
2022/04/15 01:00:45;;;;;;;;;;;10.00;86.00;;;;;;2090156;28;19916;-89
2022/04/15 01:02:05;;;;;;;;;;;10.00;86.10;;;;;;2097409;28;19912;-89
2022/04/15 01:03:24;;;;;;;;;;;10.00;86.10;;;;;;2099798;28;19929;-90
2022/04/15 01:04:43;;;;;;;;;;;10.00;86.10;;;;;;2102736;28;19920;-89
2022/04/15 01:06:04;;;;;;;;;;;10.00;86.20;;;;;;2105908;28;19916;-90
2022/04/15 01:07:25;;;;;;;;;;;9.90;86.10;;;;;;2096965;28;19929;-89
2022/04/15 01:08:44;;;;;;;;;;;9.90;86.20;;;;;;2092587;28;20386;-89
2022/04/15 01:10:06;;;;;;;;;;;9.90;86.20;;;;;;2088716;28;20071;-89
2022/04/15 01:11:27;;;;;;;;;;;9.90;86.20;;;;;;2093037;28;19924;-90
2022/04/15 01:12:48;;;;;;;;;;;9.90;86.20;;;;;;2101620;28;19912;-90
2022/04/15 01:14:08;;;;;;;;;;;9.90;86.20;;;;;;2099400;28;19912;-89
2022/04/15 01:15:28;;;;;;;;;;;9.90;86.20;;;;;;2095003;28;19916;-90
2022/04/15 01:16:47;;;;;;;;;;;9.90;86.20;;;;;;2087074;28;19920;-90
2022/04/15 01:18:07;;;;;;;;;;;9.90;86.20;;;;;;2089237;28;19925;-89
2022/04/15 01:19:26;;;;;;;;;;;9.90;86.20;;;;;;2094186;28;19913;-90
2022/04/15 01:20:49;;;;;;;;;;;9.90;86.30;;;;;;2095822;28;19990;-89
2022/04/15 01:22:09;;;;;;;;;;;9.90;86.20;;;;;;2096788;28;19913;-89
2022/04/15 01:23:28;;;;;;;;;;;9.90;86.20;;;;;;2096163;28;19986;-90
2022/04/15 01:24:47;;;;;;;;;;;9.90;86.20;;;;;;2092037;28;19929;-89
2022/04/15 01:26:06;;;;;;;;;;;9.80;86.20;;;;;;2092791;28;20370;-90
2022/04/15 01:27:26;;;;;;;;;;;9.80;86.20;;;;;;2081275;28;19925;-90
2022/04/15 01:28:45;;;;;;;;;;;9.80;86.30;;;;;;2098791;28;20293;-90
2022/04/15 01:30:06;;;;;;;;;;;9.80;86.30;;;;;;2087616;28;19925;-90
2022/04/15 01:31:29;;;;;;;;;;;9.80;86.30;;;;;;2079277;28;19913;-89
2022/04/15 01:32:48;;;;;;;;;;;9.80;86.40;;;;;;2092208;28;19920;-89
2022/04/15 01:34:07;;;;;;;;;;;9.70;86.40;;;;;;2096025;28;20003;-89
2022/04/15 01:35:27;;;;;;;;;;;9.70;86.40;;;;;;2092291;28;19917;-89
2022/04/15 01:36:46;;;;;;;;;;;9.70;86.50;;;;;;2093991;28;19912;-89
2022/04/15 01:38:10;;;;;;;;;;;9.70;86.50;;;;;;2082098;28;19921;-90
2022/04/15 01:39:31;;;;;;;;;;;9.70;86.60;;;;;;2099419;28;19912;-89
2022/04/15 01:40:52;;;;;;;;;;;9.60;86.50;;;;;;2087287;28;19917;-89
2022/04/15 01:42:12;;;;;;;;;;;9.60;86.60;;;;;;2090990;28;20380;-90
2022/04/15 01:43:31;;;;;;;;;;;9.60;86.70;;;;;;2093607;28;19962;-90
2022/04/15 01:44:50;;;;;;;;;;;9.50;86.70;;;;;;2091805;28;20228;-89
2022/04/15 01:46:09;;;;;;;;;;;9.50;86.80;;;;;;2088698;28;19976;-89
2022/04/15 01:47:29;;;;;;;;;;;9.50;86.80;;;;;;2103141;28;19924;-89
2022/04/15 01:48:48;;;;;;;;;;;9.40;86.80;;;;;;2096948;28;19912;-89
2022/04/15 01:50:07;;;;;;;;;;;9.40;86.80;;;;;;2086929;28;19917;-89
2022/04/15 01:51:26;;;;;;;;;;;9.40;86.90;;;;;;2100329;28;19952;-88
2022/04/15 01:52:46;;;;;;;;;;;9.30;87.00;;;;;;2100252;28;19912;-89
2022/04/15 01:54:05;;;;;;;;;;;9.30;87.10;;;;;;2095990;28;19913;-90
2022/04/15 01:55:24;;;;;;;;;;;9.30;87.10;;;;;;2093318;28;19956;-90
2022/04/15 01:56:43;;;;;;;;;;;9.30;87.10;;;;;;2093957;28;19917;-90
2022/04/15 01:58:02;;;;;;;;;;;9.30;87.10;;;;;;2097156;28;19912;-90
2022/04/15 01:59:22;;;;;;;;;;;9.30;87.20;;;;;;2100747;28;19921;-89
2022/04/15 02:00:41;;;;;;;;;;;9.20;87.20;;;;;;2106968;28;19919;-90
2022/04/15 02:02:00;;;;;;;;;;;9.20;87.20;;;;;;2104473;28;19917;-89
2022/04/15 02:03:19;;;;;;;;;;;9.20;87.20;;;;;;2091300;28;19913;-89
2022/04/15 02:04:38;;;;;;;;;;;9.20;87.20;;;;;;2093158;28;19916;-89
2022/04/15 02:05:58;;;;;;;;;;;9.20;87.40;;;;;;2088603;28;19917;-89
2022/04/15 02:07:17;;;;;;;;;;;9.10;87.30;;;;;;2094059;28;19925;-89
2022/04/15 02:08:36;;;;;;;;;;;9.10;87.40;;;;;;2099543;28;19956;-89
2022/04/15 02:09:55;;;;;;;;;;;9.00;87.40;;;;;;2108928;28;20350;-89
2022/04/15 02:11:15;;;;;;;;;;;9.00;87.60;;;;;;2099614;28;20337;-90
2022/04/15 02:12:34;;;;;;;;;;;9.00;87.60;;;;;;2110208;28;19920;-89
2022/04/15 02:13:53;;;;;;;;;;;8.90;87.70;;;;;;2109266;28;19912;-88
2022/04/15 02:15:12;;;;;;;;;;;8.90;87.80;;;;;;2091338;28;19916;-89
2022/04/15 02:16:32;;;;;;;;;;;8.90;87.80;;;;;;2093113;28;19995;-89
2022/04/15 02:17:51;;;;;;;;;;;8.90;87.80;;;;;;2088869;28;19921;-89
2022/04/15 02:19:10;;;;;;;;;;;8.90;87.80;;;;;;2101403;28;19916;-89
2022/04/15 02:20:29;;;;;;;;;;;8.90;87.80;;;;;;2096257;28;19917;-89
2022/04/15 02:21:49;;;;;;;;;;;8.80;87.80;;;;;;2101327;28;19917;-90
2022/04/15 02:23:09;;;;;;;;;;;8.80;87.80;;;;;;2091716;28;19912;-89
2022/04/15 02:24:28;;;;;;;;;;;8.80;87.90;;;;;;2106089;28;19994;-90
2022/04/15 02:25:47;;;;;;;;;;;8.70;87.90;;;;;;2091635;28;20391;-90
2022/04/15 02:27:06;;;;;;;;;;;8.70;87.90;;;;;;2090107;28;19920;-89
2022/04/15 02:28:26;;;;;;;;;;;8.70;88.20;;;;;;2087974;28;20391;-90
2022/04/15 02:29:45;;;;;;;;;;;8.70;88.10;;;;;;2089056;28;19921;-89
2022/04/15 02:31:04;;;;;;;;;;;8.70;88.10;;;;;;2094871;28;19926;-89
2022/04/15 02:32:23;;;;;;;;;;;8.70;88.10;;;;;;2087209;28;19913;-89
2022/04/15 02:33:43;;;;;;;;;;;8.60;88.10;;;;;;2082868;28;19925;-89
2022/04/15 02:35:03;;;;;;;;;;;8.60;88.10;;;;;;2091387;28;19916;-90
2022/04/15 02:36:22;;;;;;;;;;;8.50;88.20;;;;;;2076422;28;20388;-89
2022/04/15 02:37:41;;;;;;;;;;;8.50;88.30;;;;;;2084522;28;19921;-89
2022/04/15 02:39:01;;;;;;;;;;;8.40;88.40;;;;;;2086313;28;20371;-89
2022/04/15 02:40:20;;;;;;;;;;;8.40;88.50;;;;;;2089492;28;19984;-89
2022/04/15 02:41:40;;;;;;;;;;;8.40;88.60;;;;;;2085212;28;20379;-89
2022/04/15 02:43:00;;;;;;;;;;;8.30;88.60;;;;;;2086013;28;19913;-89
2022/04/15 02:44:19;;;;;;;;;;;8.30;88.60;;;;;;2075976;28;19918;-89
2022/04/15 02:45:38;;;;;;;;;;;8.30;88.60;;;;;;2081305;28;19921;-89
2022/04/15 02:46:58;;;;;;;;;;;8.30;88.60;;;;;;2082157;28;20403;-90
2022/04/15 02:48:17;;;;;;;;;;;8.40;88.50;;;;;;2089986;28;20325;-89
2022/04/15 02:49:37;;;;;;;;;;;8.40;88.40;;;;;;2089442;28;20371;-90
2022/04/15 02:50:56;;;;;;;;;;;8.50;88.40;;;;;;2087042;28;19917;-89
2022/04/15 02:52:16;;;;;;;;;;;8.50;88.30;;;;;;2081697;28;19960;-89
2022/04/15 02:53:35;;;;;;;;;;;8.50;88.10;;;;;;2082307;28;19917;-89
2022/04/15 02:54:54;;;;;;;;;;;8.50;88.00;;;;;;2087081;28;19917;-90
2022/04/15 02:56:13;;;;;;;;;;;8.60;88.00;;;;;;2086634;28;19924;-89
2022/04/15 02:57:33;;;;;;;;;;;8.60;88.00;;;;;;2075751;28;19957;-90
2022/04/15 02:58:52;;;;;;;;;;;8.60;88.00;;;;;;2082711;28;19912;-89
2022/04/15 03:00:12;;;;;;;;;;;8.60;87.90;;;;;;2083034;28;20019;-89
2022/04/15 03:01:32;;;;;;;;;;;8.70;87.90;;;;;;2080167;28;19917;-90
2022/04/15 03:02:51;;;;;;;;;;;8.60;87.80;;;;;;2086885;28;19924;-90
2022/04/15 03:04:10;;;;;;;;;;;8.70;87.80;;;;;;2087404;28;19956;-89
2022/04/15 03:05:30;;;;;;;;;;;8.70;87.80;;;;;;2076827;28;19917;-89
2022/04/15 03:06:49;;;;;;;;;;;8.70;87.80;;;;;;2081274;28;19956;-89
2022/04/15 03:08:08;;;;;;;;;;;8.70;87.80;;;;;;2087490;28;20359;-89
2022/04/15 03:09:28;;;;;;;;;;;8.70;87.60;;;;;;2090932;28;20004;-89
2022/04/15 03:10:47;;;;;;;;;;;8.70;87.60;;;;;;2093787;28;19956;-90
2022/04/15 03:12:06;;;;;;;;;;;8.80;87.70;;;;;;2084234;28;19917;-90
2022/04/15 03:13:25;;;;;;;;;;;8.70;87.60;;;;;;2086643;28;19964;-90
2022/04/15 03:14:45;;;;;;;;;;;8.80;87.70;;;;;;2090138;28;19921;-89
2022/04/15 03:16:04;;;;;;;;;;;8.80;87.70;;;;;;2098235;28;19917;-89
2022/04/15 03:17:23;;;;;;;;;;;8.80;87.60;;;;;;2089325;28;19925;-89
2022/04/15 03:18:42;;;;;;;;;;;8.80;87.60;;;;;;2090191;28;19921;-89
2022/04/15 03:20:06;;;;;;;;;;;8.80;87.70;;;;;;2082514;28;19921;-89
2022/04/15 03:21:25;;;;;;;;;;;8.80;87.70;;;;;;2089494;28;19913;-89
2022/04/15 03:22:45;;;;;;;;;;;8.80;87.70;;;;;;2076524;28;19917;-89
2022/04/15 03:24:05;;;;;;;;;;;8.80;87.70;;;;;;2083441;28;19913;-89
2022/04/15 03:25:24;;;;;;;;;;;8.80;87.80;;;;;;2090523;28;19920;-90
2022/04/15 03:26:43;;;;;;;;;;;8.80;87.80;;;;;;2079235;28;20360;-89
2022/04/15 03:28:04;;;;;;;;;;;8.90;87.80;;;;;;2080547;28;19921;-90
2022/04/15 03:29:23;;;;;;;;;;;8.90;87.70;;;;;;2081006;28;19917;-89
2022/04/15 03:30:43;;;;;;;;;;;8.90;87.90;;;;;;2083182;28;19925;-89
2022/04/15 03:32:02;;;;;;;;;;;8.80;87.70;;;;;;2088643;28;19917;-89
2022/04/15 03:33:21;;;;;;;;;;;8.80;87.80;;;;;;2026566;28;1952699;-89
2022/04/15 03:34:40;;;;;;;;;;;8.80;87.90;;;;;;2088364;28;20003;-89
2022/04/15 03:36:00;;;;;;;;;;;8.80;87.90;;;;;;2091176;28;19976;-89
2022/04/15 03:37:19;;;;;;;;;;;8.80;88.10;;;;;;2081798;28;20303;-89
2022/04/15 03:38:39;;;;;;;;;;;8.80;87.90;;;;;;2092260;28;20007;-89
2022/04/15 03:39:58;;;;;;;;;;;8.80;88.10;;;;;;2104981;28;20374;-89
2022/04/15 03:41:17;;;;;;;;;;;8.70;88.10;;;;;;2094716;28;20198;-89
2022/04/15 03:42:43;;;;;;;;;;;8.70;88.10;;;;;;2093500;28;20359;-90
2022/04/15 03:44:04;;;;;;;;;;;8.70;88.20;;;;;;2092235;28;19922;-89
2022/04/15 03:45:24;;;;;;;;;;;8.70;88.20;;;;;;2098204;28;19916;-89
2022/04/15 03:46:43;;;;;;;;;;;8.70;88.30;;;;;;2089608;28;19913;-88
2022/04/15 03:48:03;;;;;;;;;;;8.70;88.30;;;;;;2090040;28;19937;-89
2022/04/15 03:53:16;;;;;;;;;;;8.70;88.50;;;;;;2090825;28;19913;-90
2022/04/15 03:54:35;;;;;;;;;;;8.70;88.40;;;;;;2086443;28;20618;-90
2022/04/15 03:55:54;;;;;;;;;;;8.70;88.40;;;;;;2092594;28;19921;-89
2022/04/15 03:57:13;;;;;;;;;;;8.70;88.40;;;;;;2100896;28;19912;-89
2022/04/15 03:58:35;;;;;;;;;;;8.70;88.50;;;;;;2095225;28;20391;-89
2022/04/15 03:59:54;;;;;;;;;;;8.70;88.30;;;;;;2098936;28;19917;-89
2022/04/15 04:01:14;;;;;;;;;;;8.80;88.40;;;;;;2104508;28;19904;-91
2022/04/15 04:02:33;;;;;;;;;;;8.80;88.30;;;;;;2096329;28;19917;-90
2022/04/15 04:03:53;;;;;;;;;;;8.80;88.30;;;;;;2092764;28;20445;-90
2022/04/15 04:05:13;;;;;;;;;;;8.80;88.20;;;;;;2086182;28;19917;-90
2022/04/15 04:06:32;;;;;;;;;;;8.80;88.20;;;;;;2093280;28;19920;-89
2022/04/15 04:07:51;;;;;;;;;;;8.90;88.20;;;;;;2098491;28;20581;-89
2022/04/15 04:09:10;;;;;;;;;;;8.90;88.10;;;;;;2094943;28;19921;-89
2022/04/15 04:10:30;;;;;;;;;;;8.90;88.00;;;;;;2095993;28;19917;-89
2022/04/15 04:11:49;;;;;;;;;;;8.90;88.10;;;;;;2094725;28;19916;-88
2022/04/15 04:13:08;;;;;;;;;;;8.90;88.10;;;;;;2096061;28;20449;-89
2022/04/15 04:14:27;;;;;;;;;;;8.90;88.10;;;;;;2095357;28;19912;-90
2022/04/15 04:15:46;;;;;;;;;;;9.00;88.00;;;;;;2090359;28;19924;-90
2022/04/15 04:17:06;;;;;;;;;;;9.00;88.00;;;;;;2086262;28;19924;-89
2022/04/15 04:18:25;;;;;;;;;;;9.00;88.00;;;;;;2086265;28;19916;-90
2022/04/15 04:19:44;;;;;;;;;;;9.00;88.00;;;;;;2090216;28;20377;-90
2022/04/15 04:21:04;;;;;;;;;;;9.00;88.10;;;;;;2085825;28;20371;-89
2022/04/15 04:22:29;;;;;;;;;;;9.00;88.00;;;;;;2084762;28;19925;-89
2022/04/15 04:23:49;;;;;;;;;;;9.10;88.00;;;;;;2088682;28;19991;-90
2022/04/15 04:25:09;;;;;;;;;;;9.00;87.90;;;;;;2090593;28;20314;-89
2022/04/15 04:26:28;;;;;;;;;;;9.00;87.90;;;;;;2097939;28;19995;-89
2022/04/15 04:27:48;;;;;;;;;;;9.10;88.00;;;;;;2097568;28;19925;-89
2022/04/15 04:29:07;;;;;;;;;;;9.10;87.90;;;;;;2094510;28;19967;-89
2022/04/15 04:30:26;;;;;;;;;;;9.10;88.00;;;;;;2093909;28;19916;-89
2022/04/15 04:31:45;;;;;;;;;;;9.00;88.00;;;;;;2098009;28;20328;-89
2022/04/15 04:33:05;;;;;;;;;;;9.00;88.00;;;;;;2084864;28;19921;-87
2022/04/15 04:34:24;;;;;;;;;;;9.00;88.10;;;;;;2085686;28;20007;-89
2022/04/15 04:35:43;;;;;;;;;;;8.90;88.20;;;;;;2085934;28;19924;-89
2022/04/15 04:37:03;;;;;;;;;;;8.90;88.30;;;;;;2079969;28;19932;-89
2022/04/15 04:38:22;;;;;;;;;;;8.90;88.30;;;;;;2088203;28;19916;-89
2022/04/15 04:39:41;;;;;;;;;;;8.80;88.40;;;;;;2091842;28;19916;-89
2022/04/15 04:41:01;;;;;;;;;;;8.80;88.50;;;;;;2085079;28;20315;-89
2022/04/15 04:42:21;;;;;;;;;;;8.80;88.40;;;;;;2091367;28;19917;-90
2022/04/15 04:43:40;;;;;;;;;;;8.80;88.50;;;;;;2093744;28;20274;-89
2022/04/15 04:45:00;;;;;;;;;;;8.80;88.50;;;;;;2091799;28;19924;-89
2022/04/15 04:46:19;;;;;;;;;;;8.80;88.50;;;;;;2084698;28;19913;-90
2022/04/15 04:47:38;;;;;;;;;;;8.80;88.50;;;;;;2079914;28;19924;-90
2022/04/15 04:48:58;;;;;;;;;;;8.80;88.50;;;;;;2093302;28;19912;-90
2022/04/15 04:50:17;;;;;;;;;;;8.80;88.50;;;;;;2083911;28;19980;-90
2022/04/15 04:51:36;;;;;;;;;;;8.80;88.50;;;;;;2079851;28;19917;-90
2022/04/15 04:52:56;;;;;;;;;;;8.80;88.50;;;;;;2081105;28;20286;-90
2022/04/15 04:54:15;;;;;;;;;;;8.70;88.50;;;;;;2082325;28;19960;-90
2022/04/15 04:55:34;;;;;;;;;;;8.80;88.60;;;;;;2081955;28;20310;-90
2022/04/15 04:56:53;;;;;;;;;;;8.70;88.50;;;;;;2085884;28;20007;-89
2022/04/15 04:58:12;;;;;;;;;;;8.80;88.60;;;;;;2090607;28;19921;-90
2022/04/15 04:59:32;;;;;;;;;;;8.70;88.50;;;;;;2096181;28;19920;-89
2022/04/15 05:00:51;;;;;;;;;;;8.70;88.50;;;;;;2088579;28;19921;-90
2022/04/15 05:02:12;;;;;;;;;;;8.70;88.50;;;;;;2090727;28;19913;-89
2022/04/15 05:03:31;;;;;;;;;;;8.70;88.50;;;;;;2085174;28;20310;-90
2022/04/15 05:04:50;;;;;;;;;;;8.70;88.60;;;;;;2086409;28;20362;-90
2022/04/15 05:06:10;;;;;;;;;;;8.70;88.60;;;;;;2086970;28;20008;-89
2022/04/15 05:07:29;;;;;;;;;;;8.70;88.60;;;;;;2090826;28;19921;-90
2022/04/15 05:08:48;;;;;;;;;;;8.70;88.60;;;;;;2097392;28;19952;-89
2022/04/15 05:10:08;;;;;;;;;;;8.70;88.60;;;;;;2089877;28;19925;-89
2022/04/15 05:11:26;;;;;;;;;;;8.70;88.60;;;;;;2084096;28;20510;-89
2022/04/15 05:12:46;;;;;;;;;;;8.70;88.60;;;;;;2090625;28;19913;-90
2022/04/15 05:14:05;;;;;;;;;;;8.70;88.60;;;;;;2090914;28;19917;-89
2022/04/15 05:15:24;;;;;;;;;;;8.70;88.50;;;;;;2083369;28;19921;-90
2022/04/15 05:16:43;;;;;;;;;;;8.70;88.50;;;;;;2077639;28;19917;-89
2022/04/15 05:18:02;;;;;;;;;;;8.70;88.50;;;;;;2091693;28;19920;-89
2022/04/15 05:19:22;;;;;;;;;;;8.70;88.50;;;;;;2085672;28;19970;-89
2022/04/15 05:20:41;;;;;;;;;;;8.70;88.50;;;;;;2087464;28;19917;-90
2022/04/15 05:22:00;;;;;;;;;;;8.70;88.50;;;;;;2092379;28;19921;-89
2022/04/15 05:23:20;;;;;;;;;;;8.70;88.40;;;;;;2090099;28;20457;-89
2022/04/15 05:24:39;;;;;;;;;;;8.70;88.40;;;;;;2096929;28;19916;-90
2022/04/15 05:25:58;;;;;;;;;;;8.70;88.40;;;;;;2089883;28;19917;-89
2022/04/15 05:27:18;;;;;;;;;;;8.80;88.50;;;;;;2089335;28;20039;-90
2022/04/15 05:28:37;;;;;;;;;;;8.70;88.40;;;;;;2090288;28;19917;-90
2022/04/15 05:29:56;;;;;;;;;;;8.70;88.40;;;;;;2084547;28;19921;-89
2022/04/15 05:31:15;;;;;;;;;;;8.70;88.40;;;;;;2087934;28;19913;-90
2022/04/15 05:32:35;;;;;;;;;;;8.70;88.40;;;;;;2087358;28;20379;-90
2022/04/15 05:33:54;;;;;;;;;;;8.70;88.40;;;;;;2093493;28;19925;-89
2022/04/15 05:35:13;;;;;;;;;;;8.70;88.40;;;;;;2093837;28;19948;-89
2022/04/15 05:36:32;;;;;;;;;;;8.70;88.40;;;;;;2079301;28;19917;-90
2022/04/15 05:37:51;;;;;;;;;;;8.80;88.40;;;;;;2083937;28;19920;-91
2022/04/15 05:39:11;;;;;;;;;;;8.80;88.30;;;;;;2083577;28;19916;-89
2022/04/15 05:40:30;;;;;;;;;;;8.80;88.30;;;;;;2091937;28;19917;-90
2022/04/15 05:41:49;;;;;;;;;;;8.90;88.30;;;;;;2091919;28;20000;-90
2022/04/15 05:43:08;;;;;;;;;;;8.90;88.30;;;;;;2090798;28;19909;-90
2022/04/15 05:44:28;;;;;;;;;;;8.90;88.20;;;;;;2093588;28;19916;-89
2022/04/15 05:45:47;;;;;;;;;;;8.90;88.20;;;;;;2099801;28;19925;-90
2022/04/15 05:47:07;;;;;;;;;;;8.90;88.20;;;;;;2089155;28;19921;-89
2022/04/15 05:48:26;;;;;;;;;;;8.90;88.10;;;;;;2093120;28;19920;-90
2022/04/15 05:49:45;;;;;;;;;;;9.00;88.10;;;;;;2093639;28;20408;-89
2022/04/15 05:51:05;;;;;;;;;;;9.00;88.00;;;;;;2094279;28;19913;-89
2022/04/15 05:52:24;;;;;;;;;;;9.10;88.00;;;;;;2085398;28;19917;-89
2022/04/15 05:53:43;;;;;;;;;;;9.10;87.90;;;;;;2078392;28;19961;-89
2022/04/15 05:55:02;;;;;;;;;;;9.10;87.80;;;;;;2083330;28;19921;-90
2022/04/15 05:56:21;;;;;;;;;;;9.20;87.80;;;;;;2093522;28;19920;-90
2022/04/15 05:57:40;;;;;;;;;;;9.20;87.70;;;;;;2099136;28;20278;-89
2022/04/15 05:59:00;;;;;;;;;;;9.20;87.60;;;;;;2101256;28;19904;-91
2022/04/15 06:00:19;;;;;;;;;;;9.30;87.50;;;;;;2100958;28;19917;-91
2022/04/15 06:01:39;;;;;;;;;;;9.30;87.40;;;;;;2097033;28;19916;-89
2022/04/15 06:02:58;;;;;;;;;;;9.30;87.40;;;;;;2092155;28;19917;-90
2022/04/15 06:04:17;;;;;;;;;;;9.30;87.40;;;;;;2088356;28;20382;-90
2022/04/15 06:05:36;;;;;;;;;;;9.30;87.30;;;;;;2079828;28;19917;-90
2022/04/15 06:06:56;;;;;;;;;;;9.40;87.30;;;;;;2084932;28;19924;-87
2022/04/15 06:08:15;;;;;;;;;;;9.40;87.30;;;;;;2085174;28;19913;-89
2022/04/15 06:09:35;;;;;;;;;;;9.40;87.20;;;;;;2087294;28;19929;-91
2022/04/15 06:10:54;;;;;;;;;;;9.40;87.20;;;;;;2098121;28;19978;-89
2022/04/15 06:12:13;;;;;;;;;;;9.40;87.30;;;;;;2094416;28;19946;-88
2022/04/15 06:13:33;;;;;;;;;;;9.40;87.30;;;;;;2090862;28;19925;-90
2022/04/15 06:14:53;;;;;;;;;;;9.40;87.20;;;;;;2091278;28;19916;-90
2022/04/15 06:16:16;;;;;;;;;;;9.50;87.30;;;;;;2086358;28;20008;-91
2022/04/15 06:17:36;;;;;;;;;;;9.50;87.30;;;;;;2089809;28;19912;-89
2022/04/15 06:18:55;;;;;;;;;;;9.40;87.10;;;;;;2092912;28;19952;-90
2022/04/15 06:20:15;;;;;;;;;;;9.50;87.20;;;;;;2091676;28;19917;-89
2022/04/15 06:21:34;;;;;;;;;;;9.40;87.10;;;;;;2092857;28;19917;-89
2022/04/15 06:22:53;;;;;;;;;;;9.40;87.20;;;;;;2097813;28;19992;-90
2022/04/15 06:24:12;;;;;;;;;;;9.40;87.20;;;;;;2091447;28;19916;-89
2022/04/15 06:25:31;;;;;;;;;;;9.40;87.20;;;;;;2086080;28;19920;-89
2022/04/15 06:26:51;;;;;;;;;;;9.40;87.20;;;;;;2087283;28;19925;-90
2022/04/15 06:28:11;;;;;;;;;;;9.40;87.20;;;;;;2083563;28;19972;-89
2022/04/15 06:29:30;;;;;;;;;;;9.50;87.30;;;;;;2093966;28;19912;-90
2022/04/15 06:30:50;;;;;;;;;;;9.40;87.20;;;;;;2087001;28;19918;-89
2022/04/15 06:32:09;;;;;;;;;;;9.40;87.30;;;;;;2080215;28;19924;-88
2022/04/15 06:33:28;;;;;;;;;;;9.40;87.40;;;;;;2081426;28;19995;-90
2022/04/15 06:34:48;;;;;;;;;;;9.40;87.30;;;;;;2076789;28;19917;-90
2022/04/15 06:36:07;;;;;;;;;;;9.50;87.30;;;;;;2084496;28;19917;-89
2022/04/15 06:37:26;;;;;;;;;;;9.50;87.20;;;;;;2086792;28;19924;-90
2022/04/15 06:38:46;;;;;;;;;;;9.40;87.10;;;;;;2093420;28;19940;-90
2022/04/15 06:40:05;;;;;;;;;;;9.50;87.10;;;;;;2095851;28;19917;-90
2022/04/15 06:41:24;;;;;;;;;;;9.50;87.00;;;;;;2089933;28;19956;-89
2022/04/15 06:42:44;;;;;;;;;;;9.60;86.90;;;;;;2087358;28;19943;-90
2022/04/15 06:44:03;;;;;;;;;;;9.50;86.90;;;;;;2091594;28;19917;-90
2022/04/15 06:45:23;;;;;;;;;;;9.60;87.00;;;;;;2087211;28;20368;-89
2022/04/15 06:46:42;;;;;;;;;;;9.60;86.90;;;;;;2091297;28;19921;-89
2022/04/15 06:48:01;;;;;;;;;;;9.60;86.90;;;;;;2100106;28;19920;-89
2022/04/15 06:49:21;;;;;;;;;;;9.60;86.90;;;;;;2091567;28;19913;-89
2022/04/15 06:50:40;;;;;;;;;;;9.60;86.80;;;;;;2101012;28;20023;-89
2022/04/15 06:51:59;;;;;;;;;;;9.70;86.80;;;;;;2094419;28;19916;-90
2022/04/15 06:53:18;;;;;;;;;;;9.70;86.80;;;;;;2100242;28;19912;-89
2022/04/15 06:54:37;;;;;;;;;;;9.70;86.70;;;;;;2091938;28;19921;-88
2022/04/15 06:55:57;;;;;;;;;;;9.70;86.60;;;;;;2089995;28;20497;-90
2022/04/15 06:57:16;;;;;;;;;;;9.70;86.60;;;;;;2084507;28;19925;-89
2022/04/15 06:58:35;;;;;;;;;;;9.80;86.60;;;;;;2091392;28;19995;-90
2022/04/15 06:59:54;;;;;;;;;;;9.70;86.40;;;;;;2083518;28;19917;-89
2022/04/15 07:01:13;;;;;;;;;;;9.80;86.40;;;;;;2085965;28;19917;-89
2022/04/15 07:02:34;;;;;;;;;;;9.70;86.40;;;;;;2090877;28;19913;-89
2022/04/15 07:03:54;;;;;;;;;;;9.80;86.40;;;;;;2082390;28;20296;-89
2022/04/15 07:05:13;;;;;;;;;;;9.80;86.40;;;;;;2091314;28;19923;-90
2022/04/15 07:06:33;;;;;;;;;;;9.80;86.50;;;;;;2099543;28;20358;-89
2022/04/15 07:07:52;;;;;;;;;;;9.70;86.40;;;;;;2096831;28;19928;-89
2022/04/15 07:09:12;;;;;;;;;;;9.80;86.50;;;;;;2095467;28;19917;-89
2022/04/15 07:10:31;;;;;;;;;;;9.80;86.40;;;;;;2103123;28;19921;-89
2022/04/15 07:11:50;;;;;;;;;;;9.90;86.40;;;;;;2087795;28;19950;-89
2022/04/15 07:13:10;;;;;;;;;;;10.00;86.30;;;;;;2087716;28;19916;-87
2022/04/15 07:14:32;;;;;;;;;;;10.00;86.10;;;;;;2094941;28;19913;-89
2022/04/15 07:15:52;;;;;;;;;;;10.10;86.00;;;;;;2094530;28;20007;-90
2022/04/15 07:17:11;;;;;;;;;;;10.10;85.80;;;;;;2088622;28;19924;-88
2022/04/15 07:18:30;;;;;;;;;;;10.30;85.60;;;;;;2093771;28;19925;-88
2022/04/15 07:19:50;;;;;;;;;;;10.30;85.40;;;;;;2087518;28;19917;-90
2022/04/15 07:21:11;;;;;;;;;;;10.40;85.30;;;;;;2091119;28;19916;-89
2022/04/15 07:22:30;;;;;;;;;;;10.50;85.00;;;;;;2096865;28;20327;-88
2022/04/15 07:23:49;;;;;;;;;;;10.50;85.00;;;;;;2092621;28;20329;-89
2022/04/15 07:25:08;;;;;;;;;;;10.50;84.90;;;;;;2093441;28;20399;-88
2022/04/15 07:26:27;;;;;;;;;;;10.60;84.80;;;;;;2081468;28;19917;-89
2022/04/15 07:27:47;;;;;;;;;;;10.50;84.90;;;;;;2086782;28;19921;-88
2022/04/15 07:29:06;;;;;;;;;;;10.50;84.90;;;;;;2086271;28;19925;-92
2022/04/15 07:30:27;;;;;;;;;;;10.50;84.90;;;;;;2086219;28;20677;-89
2022/04/15 07:31:46;;;;;;;;;;;10.50;84.80;;;;;;2077499;28;19917;-89
2022/04/15 07:33:05;;;;;;;;;;;10.40;84.80;;;;;;2086240;28;20008;-89
2022/04/15 07:34:26;;;;;;;;;;;10.40;85.00;;;;;;2084657;28;19913;-90
2022/04/15 07:35:45;;;;;;;;;;;10.40;85.00;;;;;;2093550;28;19904;-88
2022/04/15 07:37:05;;;;;;;;;;;10.30;85.00;;;;;;2100008;28;19909;-89
2022/04/15 07:38:24;;;;;;;;;;;10.30;85.10;;;;;;2089938;28;19917;-89
2022/04/15 07:39:44;;;;;;;;;;;10.30;85.20;;;;;;2083750;28;20355;-90
2022/04/15 07:41:03;;;;;;;;;;;10.30;85.20;;;;;;2099783;28;19901;-89
2022/04/15 07:42:23;;;;;;;;;;;10.20;85.20;;;;;;2090972;28;20334;-90
2022/04/15 07:43:42;;;;;;;;;;;10.20;85.40;;;;;;2084846;28;19952;-89
2022/04/15 07:45:01;;;;;;;;;;;10.20;85.40;;;;;;2094757;28;20282;-90
2022/04/15 07:46:20;;;;;;;;;;;10.20;85.50;;;;;;2098228;28;19929;-90
2022/04/15 07:47:40;;;;;;;;;;;10.20;85.60;;;;;;2090368;28;20310;-91
2022/04/15 07:48:59;;;;;;;;;;;10.20;85.60;;;;;;2090206;28;19916;-89
2022/04/15 07:50:25;;;;;;;;;;;10.20;85.70;;;;;;2102578;28;19901;-82
2022/04/15 07:51:45;;;;;;;;;;;10.20;85.60;;;;;;2093123;28;20410;-95